Virtuoso — YM8996 — position and weather

sailwx.info

Track history (hours):
 
Tides and Currents Weather Stations Pressure Air Temp Water Temp Dewpoint Dewpoint Depression Visibility Wind Speed Wind Dir Waves Ship Positions

Virtuoso

Last reported at 2018-Jul-08 06:21 UTC. Time now 2018-Jul-16 04:50 UTC.
Position N 37°45' E 023°33'.

Length 27 m.

Type: Pleasure craft. MMSI: 271041860.

Date/timePositionNaut miles runAvg speedWind from/ knotsBaromVisibWave heightAir tempDewpointWater temp
2018-Jul-08 06:21N 37°45' E 023°33'3 8.7
2018-Jul-08 06:00N 37°44' E 023°36'  
2018-Jul-04 04:19N 37°23' E 024°44'3 8.8
2018-Jul-04 03:59N 37°23' E 024°48'3 0.2
2018-Jul-03 12:48N 37°23' E 024°52'2 6.2
2018-Jul-03 12:29N 37°22' E 024°54'12 1.7
2018-Jul-03 05:51N 37°22' E 025°08'3 8.7
2018-Jul-03 05:29N 37°22' E 025°12'2 0.1
2018-Jul-02 13:24N 37°22' E 025°15'5 7.5
2018-Jul-02 12:45N 37°25' E 025°20'0 0.1
2018-Jul-02 12:30N 37°25' E 025°20'0 0.0
2018-Jul-02 12:00N 37°25' E 025°20'0 0.0
2018-Jul-02 11:12N 37°25' E 025°20'0 0.0
2018-Jul-02 11:00N 37°25' E 025°20'0 0.0
2018-Jul-02 10:21N 37°25' E 025°20'0 0.0
2018-Jul-02 09:57N 37°25' E 025°20'0 0.0
2018-Jul-02 09:30N 37°25' E 025°20'0 0.0
2018-Jul-02 09:00N 37°25' E 025°20'0 0.0
2018-Jul-02 08:27N 37°25' E 025°20'0 0.0
2018-Jul-02 07:54N 37°25' E 025°20'0 0.0
2018-Jul-02 07:27N 37°25' E 025°20'0 0.0
2018-Jul-02 06:54N 37°25' E 025°20'0 0.0
2018-Jul-02 06:27N 37°25' E 025°20'0 0.0
2018-Jul-02 05:57N 37°25' E 025°20'0 0.0
2018-Jul-02 05:30N 37°25' E 025°20'0 0.0
2018-Jul-02 05:00N 37°25' E 025°20'0 0.0
2018-Jul-02 04:24N 37°25' E 025°20'0 0.0
2018-Jul-02 03:57N 37°25' E 025°20'0 0.0
2018-Jul-02 03:30N 37°25' E 025°20'0 0.0
2018-Jul-02 03:00N 37°25' E 025°20'0 0.0
2018-Jul-02 02:30N 37°25' E 025°20'0 0.0
2018-Jul-02 02:00N 37°25' E 025°20'0 0.0
2018-Jul-02 01:27N 37°25' E 025°20'0 0.0
2018-Jul-02 01:00N 37°25' E 025°20'0 0.0
2018-Jul-02 00:30N 37°25' E 025°20'0 0.0
2018-Jul-02 00:00N 37°25' E 025°20'0 0.0
2018-Jul-01 23:27N 37°25' E 025°20'0 0.0
2018-Jul-01 23:00N 37°25' E 025°20'0 0.0
2018-Jul-01 22:30N 37°25' E 025°20'0 0.0
2018-Jul-01 21:57N 37°25' E 025°20'0 0.0
2018-Jul-01 21:21N 37°25' E 025°20'0 0.0
2018-Jul-01 20:42N 37°25' E 025°20'0 0.0
2018-Jul-01 20:31N 37°25' E 025°20'0 0.0
2018-Jul-01 19:57N 37°25' E 025°20'0 0.0
2018-Jul-01 19:24N 37°25' E 025°20'0 0.0
2018-Jul-01 18:54N 37°25' E 025°20'0 0.0
2018-Jul-01 18:16N 37°25' E 025°20'0 0.0
2018-Jul-01 18:01N 37°25' E 025°20'0 0.0
2018-Jul-01 17:27N 37°25' E 025°20'0 0.0
2018-Jul-01 16:56N 37°25' E 025°20'0 0.0
2018-Jul-01 16:29N 37°25' E 025°20'0 0.1
2018-Jul-01 15:59N 37°25' E 025°20'0 0.0
2018-Jul-01 15:26N 37°25' E 025°20'0 0.0
2018-Jul-01 14:26N 37°25' E 025°20'0 0.1
2018-Jul-01 13:59N 37°25' E 025°20'0 0.0
2018-Jul-01 13:20N 37°25' E 025°20'0 0.0
2018-Jul-01 12:59N 37°25' E 025°20'0 0.0
2018-Jul-01 12:29N 37°25' E 025°20'0 0.0
2018-Jul-01 11:59N 37°25' E 025°20'1 2.8
2018-Jul-01 11:28N 37°24' E 025°19'2 5.2
2018-Jul-01 11:00N 37°24' E 025°16'0 0.1
2018-Jul-01 10:27N 37°24' E 025°16'0 0.0
2018-Jul-01 10:00N 37°24' E 025°16'0 0.0
2018-Jul-01 09:27N 37°24' E 025°16'0 0.0
2018-Jul-01 08:57N 37°24' E 025°16'2 3.8
2018-Jul-01 08:28N 37°26' E 025°15'4 8.9
2018-Jul-01 07:59N 37°28' E 025°10'72 1.8
2018-Jun-29 15:31N 37°44' E 023°41'1 8.5
2018-Jun-29 15:26N 37°44' E 023°40'4 8.8
2018-Jun-29 15:00N 37°45' E 023°36'2 0.4
2018-Jun-29 09:50N 37°45' E 023°33'1 1.8
2018-Jun-29 09:30N 37°44' E 023°33'  
Track history (hours):
 
Tides and Currents Weather Stations Pressure Air Temp Water Temp Dewpoint Dewpoint Depression Visibility Wind Speed Wind Dir Waves Ship Positions

Virtuoso

Last reported at 2018-Jul-08 06:21 UTC. Time now 2018-Jul-16 04:50 UTC.
Position N 37°45' E 023°33'.

Length 27 m.

Type: Pleasure craft. MMSI: 271041860.

Date/timePositionNaut miles runAvg speedWind from/ knotsBaromVisibWave heightAir tempDewpointWater temp
2018-Jul-08 06:21N 37°45' E 023°33'3 8.7
2018-Jul-08 06:00N 37°44' E 023°36'  
2018-Jul-04 04:19N 37°23' E 024°44'3 8.8
2018-Jul-04 03:59N 37°23' E 024°48'3 0.2
2018-Jul-03 12:48N 37°23' E 024°52'2 6.2
2018-Jul-03 12:29N 37°22' E 024°54'12 1.7
2018-Jul-03 05:51N 37°22' E 025°08'3 8.7
2018-Jul-03 05:29N 37°22' E 025°12'2 0.1
2018-Jul-02 13:24N 37°22' E 025°15'5 7.5
2018-Jul-02 12:45N 37°25' E 025°20'0 0.1
2018-Jul-02 12:30N 37°25' E 025°20'0 0.0
2018-Jul-02 12:00N 37°25' E 025°20'0 0.0
2018-Jul-02 11:12N 37°25' E 025°20'0 0.0
2018-Jul-02 11:00N 37°25' E 025°20'0 0.0
2018-Jul-02 10:21N 37°25' E 025°20'0 0.0
2018-Jul-02 09:57N 37°25' E 025°20'0 0.0
2018-Jul-02 09:30N 37°25' E 025°20'0 0.0
2018-Jul-02 09:00N 37°25' E 025°20'0 0.0
2018-Jul-02 08:27N 37°25' E 025°20'0 0.0
2018-Jul-02 07:54N 37°25' E 025°20'0 0.0
2018-Jul-02 07:27N 37°25' E 025°20'0 0.0
2018-Jul-02 06:54N 37°25' E 025°20'0 0.0
2018-Jul-02 06:27N 37°25' E 025°20'0 0.0
2018-Jul-02 05:57N 37°25' E 025°20'0 0.0
2018-Jul-02 05:30N 37°25' E 025°20'0 0.0
2018-Jul-02 05:00N 37°25' E 025°20'0 0.0
2018-Jul-02 04:24N 37°25' E 025°20'0 0.0
2018-Jul-02 03:57N 37°25' E 025°20'0 0.0
2018-Jul-02 03:30N 37°25' E 025°20'0 0.0
2018-Jul-02 03:00N 37°25' E 025°20'0 0.0
2018-Jul-02 02:30N 37°25' E 025°20'0 0.0
2018-Jul-02 02:00N 37°25' E 025°20'0 0.0
2018-Jul-02 01:27N 37°25' E 025°20'0 0.0
2018-Jul-02 01:00N 37°25' E 025°20'0 0.0
2018-Jul-02 00:30N 37°25' E 025°20'0 0.0
2018-Jul-02 00:00N 37°25' E 025°20'0 0.0
2018-Jul-01 23:27N 37°25' E 025°20'0 0.0
2018-Jul-01 23:00N 37°25' E 025°20'0 0.0
2018-Jul-01 22:30N 37°25' E 025°20'0 0.0
2018-Jul-01 21:57N 37°25' E 025°20'0 0.0
2018-Jul-01 21:21N 37°25' E 025°20'0 0.0
2018-Jul-01 20:42N 37°25' E 025°20'0 0.0
2018-Jul-01 20:31N 37°25' E 025°20'0 0.0
2018-Jul-01 19:57N 37°25' E 025°20'0 0.0
2018-Jul-01 19:24N 37°25' E 025°20'0 0.0
2018-Jul-01 18:54N 37°25' E 025°20'0 0.0
2018-Jul-01 18:16N 37°25' E 025°20'0 0.0
2018-Jul-01 18:01N 37°25' E 025°20'0 0.0
2018-Jul-01 17:27N 37°25' E 025°20'0 0.0
2018-Jul-01 16:56N 37°25' E 025°20'0 0.0
2018-Jul-01 16:29N 37°25' E 025°20'0 0.1
2018-Jul-01 15:59N 37°25' E 025°20'0 0.0
2018-Jul-01 15:26N 37°25' E 025°20'0 0.0
2018-Jul-01 14:26N 37°25' E 025°20'0 0.1
2018-Jul-01 13:59N 37°25' E 025°20'0 0.0
2018-Jul-01 13:20N 37°25' E 025°20'0 0.0
2018-Jul-01 12:59N 37°25' E 025°20'0 0.0
2018-Jul-01 12:29N 37°25' E 025°20'0 0.0
2018-Jul-01 11:59N 37°25' E 025°20'1 2.8
2018-Jul-01 11:28N 37°24' E 025°19'2 5.2
2018-Jul-01 11:00N 37°24' E 025°16'0 0.1
2018-Jul-01 10:27N 37°24' E 025°16'0 0.0
2018-Jul-01 10:00N 37°24' E 025°16'0 0.0
2018-Jul-01 09:27N 37°24' E 025°16'0 0.0
2018-Jul-01 08:57N 37°24' E 025°16'2 3.8
2018-Jul-01 08:28N 37°26' E 025°15'4 8.9
2018-Jul-01 07:59N 37°28' E 025°10'72 1.8
2018-Jun-29 15:31N 37°44' E 023°41'1 8.5
2018-Jun-29 15:26N 37°44' E 023°40'4 8.8
2018-Jun-29 15:00N 37°45' E 023°36'2 0.4
2018-Jun-29 09:50N 37°45' E 023°33'1 1.8
2018-Jun-29 09:30N 37°44' E 023°33'  

Dump ship's entire track history